sensor_id;sensor_type;location;lat;lon;timestamp;temperature;humidity
15184;DHT22;7693;49.266;7.104;2022-09-11T05:39:41;15.60;99.90
15184;DHT22;7693;49.266;7.104;2022-09-11T05:42:07;15.60;99.90
15184;DHT22;7693;49.266;7.104;2022-09-11T05:44:32;15.60;99.90
15184;DHT22;7693;49.266;7.104;2022-09-11T05:46:58;15.60;99.90
15184;DHT22;7693;49.266;7.104;2022-09-11T05:49:23;15.70;99.90
15184;DHT22;7693;49.266;7.104;2022-09-11T05:51:50;15.70;99.90
15184;DHT22;7693;49.266;7.104;2022-09-11T05:54:15;15.70;99.90
15184;DHT22;7693;49.266;7.104;2022-09-11T05:56:41;15.70;99.90
15184;DHT22;7693;49.266;7.104;2022-09-11T05:59:11;15.80;99.90
15184;DHT22;7693;49.266;7.104;2022-09-11T06:01:38;15.80;99.90
15184;DHT22;7693;49.266;7.104;2022-09-11T06:04:08;15.90;99.90
15184;DHT22;7693;49.266;7.104;2022-09-11T06:06:34;15.90;99.90
15184;DHT22;7693;49.266;7.104;2022-09-11T06:08:59;15.90;99.90
15184;DHT22;7693;49.266;7.104;2022-09-11T06:11:25;15.90;99.90
15184;DHT22;7693;49.266;7.104;2022-09-11T06:13:51;15.90;99.90
15184;DHT22;7693;49.266;7.104;2022-09-11T06:16:18;15.90;99.90
15184;DHT22;7693;49.266;7.104;2022-09-11T06:18:49;15.90;99.90
15184;DHT22;7693;49.266;7.104;2022-09-11T06:21:20;16.00;99.90
15184;DHT22;7693;49.266;7.104;2022-09-11T06:23:47;16.00;99.90
15184;DHT22;7693;49.266;7.104;2022-09-11T06:26:15;16.00;99.90
15184;DHT22;7693;49.266;7.104;2022-09-11T06:28:41;16.00;99.90
15184;DHT22;7693;49.266;7.104;2022-09-11T06:31:10;16.00;99.90
15184;DHT22;7693;49.266;7.104;2022-09-11T06:33:38;16.00;99.90
15184;DHT22;7693;49.266;7.104;2022-09-11T06:36:06;16.00;99.90
15184;DHT22;7693;49.266;7.104;2022-09-11T06:38:32;16.00;99.90
15184;DHT22;7693;49.266;7.104;2022-09-11T06:41:02;16.00;99.90
15184;DHT22;7693;49.266;7.104;2022-09-11T06:43:29;16.00;99.90
15184;DHT22;7693;49.266;7.104;2022-09-11T06:45:55;16.10;99.90
15184;DHT22;7693;49.266;7.104;2022-09-11T06:48:27;16.10;99.90
15184;DHT22;7693;49.266;7.104;2022-09-11T06:50:54;16.10;99.90
15184;DHT22;7693;49.266;7.104;2022-09-11T06:53:21;16.20;99.90
15184;DHT22;7693;49.266;7.104;2022-09-11T06:55:47;16.20;99.90
15184;DHT22;7693;49.266;7.104;2022-09-11T06:58:13;16.20;99.90
15184;DHT22;7693;49.266;7.104;2022-09-11T07:00:38;16.20;99.90
15184;DHT22;7693;49.266;7.104;2022-09-11T07:03:05;16.20;99.90
15184;DHT22;7693;49.266;7.104;2022-09-11T07:05:30;16.20;99.90
15184;DHT22;7693;49.266;7.104;2022-09-11T07:07:56;16.30;99.90
15184;DHT22;7693;49.266;7.104;2022-09-11T07:10:22;16.40;99.90
15184;DHT22;7693;49.266;7.104;2022-09-11T07:12:48;16.40;99.90
15184;DHT22;7693;49.266;7.104;2022-09-11T07:15:16;16.50;99.90
15184;DHT22;7693;49.266;7.104;2022-09-11T07:17:41;16.50;99.90
15184;DHT22;7693;49.266;7.104;2022-09-11T07:20:08;16.60;99.90
15184;DHT22;7693;49.266;7.104;2022-09-11T07:22:34;16.70;99.90
15184;DHT22;7693;49.266;7.104;2022-09-11T07:24:59;16.70;99.90
15184;DHT22;7693;49.266;7.104;2022-09-11T07:27:26;16.70;99.90
15184;DHT22;7693;49.266;7.104;2022-09-11T07:29:51;16.80;99.90
15184;DHT22;7693;49.266;7.104;2022-09-11T07:32:17;16.80;99.90
15184;DHT22;7693;49.266;7.104;2022-09-11T07:34:43;16.80;99.90
15184;DHT22;7693;49.266;7.104;2022-09-11T07:37:12;16.80;99.90
15184;DHT22;7693;49.266;7.104;2022-09-11T07:39:38;16.80;99.90
15184;DHT22;7693;49.266;7.104;2022-09-11T07:42:03;16.90;99.90
15184;DHT22;7693;49.266;7.104;2022-09-11T07:44:31;17.00;99.90
15184;DHT22;7693;49.266;7.104;2022-09-11T07:46:57;17.00;99.90
15184;DHT22;7693;49.266;7.104;2022-09-11T07:49:23;17.00;99.90
15184;DHT22;7693;49.266;7.104;2022-09-11T07:51:48;17.00;99.90
15184;DHT22;7693;49.266;7.104;2022-09-11T07:54:14;17.00;99.90
15184;DHT22;7693;49.266;7.104;2022-09-11T07:56:39;17.10;99.90
15184;DHT22;7693;49.266;7.104;2022-09-11T07:59:07;17.10;99.90
15184;DHT22;7693;49.266;7.104;2022-09-11T08:01:33;17.10;99.90
15184;DHT22;7693;49.266;7.104;2022-09-11T08:04:01;17.10;99.90
15184;DHT22;7693;49.266;7.104;2022-09-11T08:06:30;17.10;99.90
15184;DHT22;7693;49.266;7.104;2022-09-11T08:08:59;17.10;99.90
15184;DHT22;7693;49.266;7.104;2022-09-11T08:11:26;17.10;99.90
15184;DHT22;7693;49.266;7.104;2022-09-11T08:13:53;17.10;99.90
15184;DHT22;7693;49.266;7.104;2022-09-11T08:16:28;17.10;99.90
15184;DHT22;7693;49.266;7.104;2022-09-11T08:18:54;17.20;99.90
15184;DHT22;7693;49.266;7.104;2022-09-11T08:21:20;17.20;99.90
15184;DHT22;7693;49.266;7.104;2022-09-11T08:23:47;17.30;99.90
15184;DHT22;7693;49.266;7.104;2022-09-11T08:26:17;17.30;99.90
15184;DHT22;7693;49.266;7.104;2022-09-11T08:28:44;17.40;99.90
15184;DHT22;7693;49.266;7.104;2022-09-11T08:31:11;17.40;99.90
15184;DHT22;7693;49.266;7.104;2022-09-11T08:33:37;17.40;99.90
15184;DHT22;7693;49.266;7.104;2022-09-11T08:36:05;17.40;99.90
15184;DHT22;7693;49.266;7.104;2022-09-11T08:38:31;17.40;99.90
15184;DHT22;7693;49.266;7.104;2022-09-11T08:41:07;17.40;99.90
15184;DHT22;7693;49.266;7.104;2022-09-11T08:43:36;17.40;99.90
15184;DHT22;7693;49.266;7.104;2022-09-11T08:46:07;17.40;99.90
15184;DHT22;7693;49.266;7.104;2022-09-11T08:48:52;17.40;99.90
15184;DHT22;7693;49.266;7.104;2022-09-11T08:51:20;17.50;99.90
15184;DHT22;7693;49.266;7.104;2022-09-11T08:53:46;17.50;99.90
15184;DHT22;7693;49.266;7.104;2022-09-11T08:56:16;17.50;99.90
15184;DHT22;7693;49.266;7.104;2022-09-11T08:59:10;17.50;99.90
15184;DHT22;7693;49.266;7.104;2022-09-11T09:07:24;17.50;99.90
15184;DHT22;7693;49.266;7.104;2022-09-11T09:10:10;17.50;99.90
15184;DHT22;7693;49.266;7.104;2022-09-11T09:20:24;17.60;99.90
15184;DHT22;7693;49.266;7.104;2022-09-11T09:25:43;17.70;99.90
15184;DHT22;7693;49.266;7.104;2022-09-11T09:28:16;17.80;99.90
15184;DHT22;7693;49.266;7.104;2022-09-11T09:38:37;17.90;99.90
15184;DHT22;7693;49.266;7.104;2022-09-11T09:41:26;17.90;99.90
15184;DHT22;7693;49.266;7.104;2022-09-11T09:46:51;18.00;99.90
15184;DHT22;7693;49.266;7.104;2022-09-11T09:49:37;18.00;99.90
15184;DHT22;7693;49.266;7.104;2022-09-11T09:52:24;18.10;99.90
15184;DHT22;7693;49.266;7.104;2022-09-11T09:54:58;18.10;99.90
15184;DHT22;7693;49.266;7.104;2022-09-11T09:57:28;18.20;99.90
15184;DHT22;7693;49.266;7.104;2022-09-11T12:28:43;20.30;99.90
15184;DHT22;7693;49.266;7.104;2022-09-11T12:31:14;20.30;99.90
15184;DHT22;7693;49.266;7.104;2022-09-11T12:38:59;20.60;99.90
15184;DHT22;7693;49.266;7.104;2022-09-11T12:41:31;20.80;99.90
15184;DHT22;7693;49.266;7.104;2022-09-11T12:43:58;20.90;99.90
15184;DHT22;7693;49.266;7.104;2022-09-11T12:48:54;21.30;99.90
15184;DHT22;7693;49.266;7.104;2022-09-11T12:51:27;21.40;99.90
15184;DHT22;7693;49.266;7.104;2022-09-11T12:53:58;21.30;99.90
15184;DHT22;7693;49.266;7.104;2022-09-11T12:56:27;21.30;99.90
15184;DHT22;7693;49.266;7.104;2022-09-11T12:59:06;21.40;99.90
15184;DHT22;7693;49.266;7.104;2022-09-11T13:01:41;21.40;99.90
15184;DHT22;7693;49.266;7.104;2022-09-11T13:06:40;21.40;99.90
15184;DHT22;7693;49.266;7.104;2022-09-11T13:09:28;21.40;99.90
15184;DHT22;7693;49.266;7.104;2022-09-11T19:36:25;15.90;99.90
15184;DHT22;7693;49.266;7.104;2022-09-11T19:38:52;15.90;99.90
15184;DHT22;7693;49.266;7.104;2022-09-11T19:41:22;15.90;99.90
15184;DHT22;7693;49.266;7.104;2022-09-11T19:43:48;15.90;99.90
15184;DHT22;7693;49.266;7.104;2022-09-11T19:46:17;15.90;99.90
15184;DHT22;7693;49.266;7.104;2022-09-11T19:48:43;15.90;99.90
15184;DHT22;7693;49.266;7.104;2022-09-11T19:51:16;15.90;99.90
15184;DHT22;7693;49.266;7.104;2022-09-11T19:53:42;15.80;99.90
15184;DHT22;7693;49.266;7.104;2022-09-11T19:56:09;15.80;99.90
15184;DHT22;7693;49.266;7.104;2022-09-11T19:58:35;15.80;99.90
15184;DHT22;7693;49.266;7.104;2022-09-11T20:01:05;15.80;99.90
15184;DHT22;7693;49.266;7.104;2022-09-11T20:03:34;15.70;99.90
15184;DHT22;7693;49.266;7.104;2022-09-11T20:05:59;15.70;99.90
15184;DHT22;7693;49.266;7.104;2022-09-11T20:08:25;15.70;99.90
15184;DHT22;7693;49.266;7.104;2022-09-11T20:10:54;15.70;99.90
15184;DHT22;7693;49.266;7.104;2022-09-11T20:13:20;15.70;99.90
15184;DHT22;7693;49.266;7.104;2022-09-11T20:15:46;15.60;99.90
15184;DHT22;7693;49.266;7.104;2022-09-11T20:18:12;15.60;99.90
15184;DHT22;7693;49.266;7.104;2022-09-11T20:20:39;15.60;99.90
15184;DHT22;7693;49.266;7.104;2022-09-11T20:23:05;15.50;99.90
15184;DHT22;7693;49.266;7.104;2022-09-11T20:25:31;15.50;99.90
15184;DHT22;7693;49.266;7.104;2022-09-11T20:28:00;15.50;99.90
15184;DHT22;7693;49.266;7.104;2022-09-11T20:30:26;15.40;99.90
15184;DHT22;7693;49.266;7.104;2022-09-11T20:32:51;15.40;99.90
15184;DHT22;7693;49.266;7.104;2022-09-11T20:35:17;15.30;99.90
15184;DHT22;7693;49.266;7.104;2022-09-11T20:37:43;15.30;99.90
15184;DHT22;7693;49.266;7.104;2022-09-11T20:40:10;15.30;99.90
15184;DHT22;7693;49.266;7.104;2022-09-11T20:42:36;15.30;99.90
15184;DHT22;7693;49.266;7.104;2022-09-11T20:45:02;15.20;99.90
15184;DHT22;7693;49.266;7.104;2022-09-11T20:47:28;15.20;99.90
15184;DHT22;7693;49.266;7.104;2022-09-11T20:49:53;15.10;99.90
15184;DHT22;7693;49.266;7.104;2022-09-11T20:52:19;15.10;99.90
15184;DHT22;7693;49.266;7.104;2022-09-11T20:54:45;15.10;99.90
15184;DHT22;7693;49.266;7.104;2022-09-11T20:57:12;15.00;99.90
15184;DHT22;7693;49.266;7.104;2022-09-11T20:59:38;15.00;99.90
15184;DHT22;7693;49.266;7.104;2022-09-11T21:02:03;15.00;99.90
15184;DHT22;7693;49.266;7.104;2022-09-11T21:04:29;14.90;99.90
15184;DHT22;7693;49.266;7.104;2022-09-11T21:06:55;14.90;99.90
15184;DHT22;7693;49.266;7.104;2022-09-11T21:09:21;14.90;99.90
15184;DHT22;7693;49.266;7.104;2022-09-11T21:11:49;14.80;99.90
15184;DHT22;7693;49.266;7.104;2022-09-11T21:14:15;14.80;99.90
15184;DHT22;7693;49.266;7.104;2022-09-11T21:16:41;14.80;99.90
15184;DHT22;7693;49.266;7.104;2022-09-11T21:19:08;14.80;99.90
15184;DHT22;7693;49.266;7.104;2022-09-11T21:21:35;14.70;99.90
15184;DHT22;7693;49.266;7.104;2022-09-11T21:24:07;14.70;99.90
15184;DHT22;7693;49.266;7.104;2022-09-11T21:26:33;14.70;99.90
15184;DHT22;7693;49.266;7.104;2022-09-11T21:29:02;14.60;99.90
15184;DHT22;7693;49.266;7.104;2022-09-11T21:31:28;14.60;99.90
15184;DHT22;7693;49.266;7.104;2022-09-11T21:33:54;14.60;99.90
15184;DHT22;7693;49.266;7.104;2022-09-11T21:36:20;14.50;99.90
15184;DHT22;7693;49.266;7.104;2022-09-11T21:38:46;14.50;99.90
15184;DHT22;7693;49.266;7.104;2022-09-11T21:41:12;14.50;99.90
15184;DHT22;7693;49.266;7.104;2022-09-11T21:43:38;14.50;99.90
15184;DHT22;7693;49.266;7.104;2022-09-11T21:46:05;14.50;99.90
15184;DHT22;7693;49.266;7.104;2022-09-11T21:48:38;14.50;99.90
15184;DHT22;7693;49.266;7.104;2022-09-11T21:51:13;14.50;99.90
15184;DHT22;7693;49.266;7.104;2022-09-11T21:53:41;14.50;99.90
15184;DHT22;7693;49.266;7.104;2022-09-11T21:56:18;14.50;99.90
15184;DHT22;7693;49.266;7.104;2022-09-11T21:58:45;14.40;99.90
15184;DHT22;7693;49.266;7.104;2022-09-11T22:01:10;14.40;99.90
15184;DHT22;7693;49.266;7.104;2022-09-11T22:03:36;14.40;99.90
15184;DHT22;7693;49.266;7.104;2022-09-11T22:06:09;14.40;99.90
15184;DHT22;7693;49.266;7.104;2022-09-11T22:08:39;14.30;99.90
15184;DHT22;7693;49.266;7.104;2022-09-11T22:11:05;14.30;99.90
15184;DHT22;7693;49.266;7.104;2022-09-11T22:13:32;14.30;99.90
15184;DHT22;7693;49.266;7.104;2022-09-11T22:16:03;14.30;99.90
15184;DHT22;7693;49.266;7.104;2022-09-11T22:18:29;14.30;99.90
15184;DHT22;7693;49.266;7.104;2022-09-11T22:20:56;14.30;99.90
15184;DHT22;7693;49.266;7.104;2022-09-11T22:23:25;14.30;99.90
15184;DHT22;7693;49.266;7.104;2022-09-11T22:26:10;14.30;99.90
15184;DHT22;7693;49.266;7.104;2022-09-11T22:28:37;14.30;99.90
